Time;durP1;ratioP1;P1;durP2;ratioP2;P2;SDS_P1;SDS_P2;PMS_P1;PMS_P2;Temp;Humidity;BMP_temperature;BMP_pressure;BME280_temperature;BME280_humidity;BME280_pressure;Samples;Min_cycle;Max_cycle;Signal;HPM_P1;HPM_P2
2023/11/25 00:00:52;;;;;;;66.07;51.70;;;;;;;;;;5040970;28;20205;-82
2023/11/25 00:03:19;;;;;;;22.40;17.33;;;;;;;;;;5047250;28;20252;-82
2023/11/25 00:05:46;;;;;;;35.47;22.23;;;;;;;;;;5041754;28;20206;-82
2023/11/25 00:08:12;;;;;;;18.33;15.07;;;;;;;;;;5050372;28;20213;-82
2023/11/25 00:10:41;;;;;;;13.90;10.40;;;;;;;;;;5050725;28;20237;-82
2023/11/25 00:13:09;;;;;;;13.03;10.97;;;;;;;;;;5050534;28;20209;-82
2023/11/25 00:15:35;;;;;;;21.10;15.60;;;;;;;;;;5050947;28;20202;-82
2023/11/25 00:18:03;;;;;;;15.40;12.07;;;;;;;;;;5037655;28;20205;-82
2023/11/25 00:20:29;;;;;;;15.50;11.60;;;;;;;;;;5050429;28;20237;-82
2023/11/25 00:22:56;;;;;;;28.30;20.80;;;;;;;;;;5032631;28;20203;-82
2023/11/25 00:25:24;;;;;;;19.83;14.30;;;;;;;;;;5042228;28;20208;-82
2023/11/25 00:27:52;;;;;;;15.63;12.00;;;;;;;;;;5050195;28;20206;-82
2023/11/25 00:30:19;;;;;;;12.77;10.40;;;;;;;;;;5050979;28;20233;-82
2023/11/25 00:32:47;;;;;;;12.73;10.90;;;;;;;;;;5056426;28;20288;-83
2023/11/25 00:35:14;;;;;;;10.97;9.87;;;;;;;;;;5057365;28;20228;-82
2023/11/25 00:37:42;;;;;;;9.87;8.87;;;;;;;;;;5043734;28;20225;-82
2023/11/25 00:40:10;;;;;;;11.07;8.57;;;;;;;;;;5056961;28;20210;-82
2023/11/25 00:42:39;;;;;;;10.23;8.30;;;;;;;;;;5057004;28;20198;-82
2023/11/25 00:45:10;;;;;;;11.50;8.47;;;;;;;;;;5057189;28;20208;-82
2023/11/25 00:47:39;;;;;;;9.87;8.00;;;;;;;;;;5031535;28;20752;-82
2023/11/25 00:50:08;;;;;;;11.67;9.57;;;;;;;;;;5055900;28;20225;-82
2023/11/25 00:52:35;;;;;;;11.20;9.47;;;;;;;;;;5045294;28;20204;-82
2023/11/25 00:55:02;;;;;;;10.70;8.70;;;;;;;;;;5056913;28;20201;-83
2023/11/25 00:57:29;;;;;;;11.93;8.90;;;;;;;;;;5057336;28;20208;-82
2023/11/25 00:59:55;;;;;;;10.97;9.43;;;;;;;;;;5054661;28;20205;-82
2023/11/25 01:02:24;;;;;;;11.67;8.93;;;;;;;;;;5045958;28;20206;-82
2023/11/25 01:04:50;;;;;;;11.27;8.93;;;;;;;;;;5056427;28;20213;-82
2023/11/25 01:07:19;;;;;;;10.87;8.93;;;;;;;;;;5047565;28;20616;-82
2023/11/25 01:09:46;;;;;;;9.83;8.67;;;;;;;;;;5053723;28;20201;-82
2023/11/25 01:12:12;;;;;;;10.40;9.17;;;;;;;;;;5056848;28;20209;-82
2023/11/25 01:14:41;;;;;;;11.20;9.37;;;;;;;;;;5052952;28;20210;-82
2023/11/25 01:17:11;;;;;;;9.87;8.90;;;;;;;;;;5047925;28;20206;-82
2023/11/25 01:19:42;;;;;;;12.07;9.90;;;;;;;;;;5057055;28;20640;-83
2023/11/25 01:22:09;;;;;;;13.27;10.73;;;;;;;;;;5057246;28;20201;-82
2023/11/25 01:24:36;;;;;;;19.73;14.90;;;;;;;;;;5056557;28;20201;-82
2023/11/25 01:27:02;;;;;;;16.10;13.23;;;;;;;;;;5056960;28;20214;-82
2023/11/25 01:29:29;;;;;;;20.23;15.57;;;;;;;;;;5056518;28;20198;-82
2023/11/25 01:31:56;;;;;;;21.63;16.57;;;;;;;;;;5056385;28;20225;-82
2023/11/25 01:34:23;;;;;;;29.37;21.13;;;;;;;;;;5050146;28;20214;-82
2023/11/25 01:36:52;;;;;;;99.47;53.73;;;;;;;;;;5048728;28;20692;-83
2023/11/25 01:39:19;;;;;;;42.77;27.37;;;;;;;;;;5056851;28;20267;-81
2023/11/25 01:41:46;;;;;;;28.43;19.30;;;;;;;;;;5056225;28;20206;-82
2023/11/25 01:44:13;;;;;;;38.23;26.17;;;;;;;;;;5052306;28;20206;-82
2023/11/25 01:46:42;;;;;;;33.97;26.00;;;;;;;;;;5054012;28;20256;-82
2023/11/25 01:49:11;;;;;;;19.80;13.73;;;;;;;;;;5027259;28;20691;-82
2023/11/25 01:51:39;;;;;;;11.53;9.93;;;;;;;;;;5053318;28;20221;-82
2023/11/25 01:54:11;;;;;;;15.57;13.53;;;;;;;;;;5046318;28;20203;-83
2023/11/25 01:56:37;;;;;;;23.40;17.20;;;;;;;;;;5046443;28;20206;-83
2023/11/25 01:59:06;;;;;;;14.60;12.93;;;;;;;;;;5042040;28;20197;-82
2023/11/25 02:01:33;;;;;;;11.67;10.33;;;;;;;;;;5052472;28;20198;-83
2023/11/25 02:04:00;;;;;;;12.40;8.63;;;;;;;;;;5053294;28;20738;-82
2023/11/25 02:06:27;;;;;;;12.43;9.63;;;;;;;;;;5052893;28;20209;-82
2023/11/25 02:08:54;;;;;;;12.43;10.63;;;;;;;;;;5053133;28;20202;-82
2023/11/25 02:11:25;;;;;;;16.77;13.23;;;;;;;;;;5052673;28;20230;-82
2023/11/25 02:13:52;;;;;;;19.23;14.73;;;;;;;;;;5053197;28;20695;-82
2023/11/25 02:16:20;;;;;;;19.43;13.63;;;;;;;;;;5036333;28;20214;-83
2023/11/25 02:18:47;;;;;;;13.67;11.17;;;;;;;;;;5043561;28;20285;-82
2023/11/25 02:21:13;;;;;;;14.70;13.03;;;;;;;;;;5053201;28;20205;-82
2023/11/25 02:23:42;;;;;;;22.73;14.70;;;;;;;;;;5042381;28;20206;-83
2023/11/25 02:26:09;;;;;;;18.80;14.07;;;;;;;;;;5051008;28;20201;-83
2023/11/25 02:28:36;;;;;;;18.10;14.70;;;;;;;;;;5052638;28;20676;-82
2023/11/25 02:31:03;;;;;;;19.63;16.87;;;;;;;;;;5048114;28;20237;-82
2023/11/25 02:33:35;;;;;;;17.17;12.10;;;;;;;;;;5044033;28;20210;-82
2023/11/25 02:36:02;;;;;;;13.37;11.43;;;;;;;;;;5047022;28;20735;-82
2023/11/25 02:38:29;;;;;;;12.70;11.03;;;;;;;;;;5045004;28;20198;-82
2023/11/25 02:40:57;;;;;;;11.73;9.43;;;;;;;;;;5051927;28;20208;-82
2023/11/25 02:43:26;;;;;;;13.70;11.17;;;;;;;;;;5040163;28;20289;-82
2023/11/25 02:45:53;;;;;;;10.47;9.40;;;;;;;;;;5039226;28;20198;-82
2023/11/25 02:48:19;;;;;;;12.67;10.67;;;;;;;;;;5052468;28;20212;-82
2023/11/25 02:50:47;;;;;;;13.17;11.27;;;;;;;;;;5038854;28;20233;-83
2023/11/25 02:53:14;;;;;;;11.33;10.03;;;;;;;;;;5052344;28;20210;-83
2023/11/25 02:55:44;;;;;;;14.50;11.50;;;;;;;;;;5043951;28;20681;-82
2023/11/25 02:58:12;;;;;;;11.60;9.83;;;;;;;;;;5045823;28;20263;-83
2023/11/25 03:00:40;;;;;;;15.27;10.93;;;;;;;;;;5040642;28;20237;-82
2023/11/25 03:03:12;;;;;;;11.07;8.70;;;;;;;;;;5052031;28;20577;-82
2023/11/25 03:05:42;;;;;;;8.80;7.90;;;;;;;;;;5052018;28;20206;-83
2023/11/25 03:08:11;;;;;;;10.53;7.60;;;;;;;;;;5048826;28;20749;-83
2023/11/25 03:10:39;;;;;;;8.73;7.73;;;;;;;;;;5042343;28;20205;-85
2023/11/25 03:13:06;;;;;;;9.77;8.77;;;;;;;;;;5052205;28;20205;-81
2023/11/25 03:15:34;;;;;;;11.93;9.37;;;;;;;;;;5040508;28;20298;-82
2023/11/25 03:18:01;;;;;;;11.63;9.40;;;;;;;;;;5031764;28;20207;-81
2023/11/25 03:20:28;;;;;;;18.23;16.27;;;;;;;;;;5043802;28;20293;-82
2023/11/25 03:22:55;;;;;;;15.43;13.23;;;;;;;;;;5051198;28;20206;-82
2023/11/25 03:25:23;;;;;;;14.40;11.53;;;;;;;;;;5039200;28;20750;-82
2023/11/25 03:27:49;;;;;;;15.20;11.57;;;;;;;;;;5037461;28;20202;-82
2023/11/25 03:30:17;;;;;;;19.47;14.37;;;;;;;;;;5051844;28;20308;-82
2023/11/25 03:32:45;;;;;;;15.77;13.77;;;;;;;;;;5049958;28;20221;-82
2023/11/25 03:35:13;;;;;;;24.10;20.43;;;;;;;;;;5051387;28;20576;-82
2023/11/25 03:37:41;;;;;;;17.63;14.60;;;;;;;;;;5050950;28;20222;-82
2023/11/25 03:40:13;;;;;;;13.17;10.93;;;;;;;;;;5051011;28;20677;-84
2023/11/25 03:42:40;;;;;;;12.53;9.70;;;;;;;;;;5024920;28;20194;-82
2023/11/25 03:45:08;;;;;;;12.07;9.17;;;;;;;;;;5050729;28;20301;-81
2023/11/25 03:47:35;;;;;;;12.47;9.53;;;;;;;;;;5026402;28;20237;-81
2023/11/25 03:50:03;;;;;;;14.00;10.23;;;;;;;;;;5037439;28;20589;-82
2023/11/25 03:52:30;;;;;;;12.20;9.97;;;;;;;;;;5045583;28;20234;-81
2023/11/25 03:54:58;;;;;;;11.10;9.13;;;;;;;;;;5049993;28;20588;-82
2023/11/25 03:57:25;;;;;;;18.93;14.77;;;;;;;;;;5042373;28;20213;-82
2023/11/25 03:59:52;;;;;;;13.17;11.77;;;;;;;;;;5046217;28;20205;-81
2023/11/25 04:02:19;;;;;;;14.77;12.40;;;;;;;;;;5051001;28;20236;-81
2023/11/25 04:04:46;;;;;;;21.77;19.30;;;;;;;;;;5050245;28;20198;-82
2023/11/25 04:07:14;;;;;;;37.13;33.13;;;;;;;;;;5050718;28;20208;-82
2023/11/25 04:09:44;;;;;;;20.37;18.17;;;;;;;;;;5050896;28;20205;-83
2023/11/25 04:12:11;;;;;;;15.10;13.57;;;;;;;;;;5033550;28;20234;-86
2023/11/25 04:14:38;;;;;;;12.80;10.83;;;;;;;;;;5042797;28;20297;-87
2023/11/25 04:17:05;;;;;;;20.90;17.00;;;;;;;;;;5046448;28;20210;-85
2023/11/25 04:19:32;;;;;;;19.57;16.93;;;;;;;;;;5043198;28;20210;-86
2023/11/25 04:22:00;;;;;;;14.73;12.73;;;;;;;;;;5020548;28;20220;-85
2023/11/25 04:24:29;;;;;;;16.40;11.60;;;;;;;;;;5038430;28;20218;-86
2023/11/25 04:26:56;;;;;;;14.17;11.33;;;;;;;;;;5037848;28;20297;-85
2023/11/25 04:29:23;;;;;;;10.87;9.70;;;;;;;;;;5037360;28;20206;-85
2023/11/25 04:31:50;;;;;;;34.83;25.80;;;;;;;;;;5030117;28;20245;-87
2023/11/25 04:34:18;;;;;;;29.43;24.07;;;;;;;;;;5049547;28;20205;-88
2023/11/25 04:36:47;;;;;;;19.67;15.20;;;;;;;;;;5050466;28;20383;-88
2023/11/25 04:39:14;;;;;;;15.30;12.57;;;;;;;;;;5037681;28;20217;-88
2023/11/25 04:41:45;;;;;;;12.97;10.53;;;;;;;;;;5038383;28;20211;-85
2023/11/25 04:44:13;;;;;;;11.00;9.90;;;;;;;;;;5037706;28;20209;-84
2023/11/25 04:46:40;;;;;;;10.87;9.67;;;;;;;;;;5050900;28;20209;-86
2023/11/25 04:49:08;;;;;;;18.57;16.57;;;;;;;;;;5023383;28;20210;-85
2023/11/25 04:51:35;;;;;;;29.13;22.60;;;;;;;;;;5037475;28;20292;-87
2023/11/25 04:54:03;;;;;;;16.70;14.67;;;;;;;;;;5042423;28;20209;-85
2023/11/25 04:56:30;;;;;;;13.50;12.07;;;;;;;;;;5019093;28;20219;-85
2023/11/25 04:58:59;;;;;;;12.77;11.47;;;;;;;;;;5051042;28;20206;-84
2023/11/25 05:01:26;;;;;;;13.80;10.67;;;;;;;;;;5036152;28;20206;-85
2023/11/25 05:03:53;;;;;;;20.37;16.90;;;;;;;;;;5038404;28;20199;-84
2023/11/25 05:06:20;;;;;;;20.47;16.93;;;;;;;;;;5038423;28;20260;-82
2023/11/25 05:08:47;;;;;;;27.17;20.23;;;;;;;;;;5050548;28;20234;-79
2023/11/25 05:11:14;;;;;;;56.50;42.43;;;;;;;;;;5042462;28;20573;-82
2023/11/25 05:13:45;;;;;;;42.73;32.27;;;;;;;;;;5045578;28;20210;-82
2023/11/25 05:16:13;;;;;;;25.33;21.50;;;;;;;;;;5050146;28;20637;-82
2023/11/25 05:18:42;;;;;;;19.53;16.70;;;;;;;;;;5051823;28;20213;-82
2023/11/25 05:21:09;;;;;;;22.40;19.70;;;;;;;;;;5054173;28;20240;-81
2023/11/25 05:23:36;;;;;;;45.90;37.80;;;;;;;;;;5053764;28;20213;-81
2023/11/25 05:26:03;;;;;;;63.50;49.60;;;;;;;;;;5053959;28;20214;-81
2023/11/25 05:28:30;;;;;;;36.97;30.67;;;;;;;;;;5049926;28;20206;-81
2023/11/25 05:30:57;;;;;;;19.17;16.40;;;;;;;;;;5044315;28;20637;-81
2023/11/25 05:33:25;;;;;;;14.33;12.83;;;;;;;;;;5043544;28;20230;-81
2023/11/25 05:35:52;;;;;;;12.27;11.00;;;;;;;;;;5051136;28;20202;-82
2023/11/25 05:38:19;;;;;;;12.87;10.80;;;;;;;;;;5053973;28;20210;-82
2023/11/25 05:40:47;;;;;;;50.20;38.57;;;;;;;;;;5035714;28;20210;-82
2023/11/25 05:43:16;;;;;;;47.40;42.23;;;;;;;;;;5045340;28;20287;-82
2023/11/25 05:45:43;;;;;;;30.10;26.83;;;;;;;;;;5040940;28;20241;-82
2023/11/25 05:48:10;;;;;;;36.30;30.00;;;;;;;;;;5041574;28;20242;-82
2023/11/25 05:50:38;;;;;;;18.27;16.30;;;;;;;;;;5053343;28;20637;-82
2023/11/25 05:53:06;;;;;;;19.43;16.77;;;;;;;;;;5040680;28;20241;-82
2023/11/25 05:55:33;;;;;;;15.53;13.93;;;;;;;;;;5053334;28;20719;-82
2023/11/25 05:58:01;;;;;;;21.27;19.07;;;;;;;;;;5040771;28;20237;-82
2023/11/25 06:00:29;;;;;;;25.67;21.93;;;;;;;;;;5035560;28;20202;-82
2023/11/25 06:02:56;;;;;;;14.53;12.60;;;;;;;;;;5042037;28;20202;-81
2023/11/25 06:05:23;;;;;;;15.90;11.70;;;;;;;;;;5032821;28;20210;-80
2023/11/25 06:07:51;;;;;;;20.30;16.47;;;;;;;;;;5043626;28;20205;-81
2023/11/25 06:10:18;;;;;;;14.83;13.13;;;;;;;;;;5033403;28;20210;-80
2023/11/25 06:12:45;;;;;;;18.83;15.13;;;;;;;;;;5032701;28;20218;-81
2023/11/25 06:15:13;;;;;;;21.20;17.30;;;;;;;;;;5043381;28;20216;-80
2023/11/25 06:17:40;;;;;;;21.63;17.63;;;;;;;;;;5051628;28;20202;-81
2023/11/25 06:20:08;;;;;;;18.53;16.00;;;;;;;;;;5035102;28;20280;-81
2023/11/25 06:22:35;;;;;;;20.37;15.67;;;;;;;;;;5053441;28;20263;-80
2023/11/25 06:25:05;;;;;;;30.40;25.07;;;;;;;;;;5039392;28;20220;-80
2023/11/25 06:27:32;;;;;;;25.50;22.63;;;;;;;;;;5042863;28;20242;-80
2023/11/25 06:29:59;;;;;;;29.37;25.23;;;;;;;;;;5046002;28;20214;-80
2023/11/25 06:32:27;;;;;;;44.60;31.67;;;;;;;;;;5042721;28;20249;-79
2023/11/25 06:34:56;;;;;;;43.07;31.13;;;;;;;;;;5052510;28;20606;-79
2023/11/25 06:37:24;;;;;;;24.30;19.97;;;;;;;;;;5049810;28;20284;-80
2023/11/25 06:39:50;;;;;;;19.67;16.13;;;;;;;;;;5032387;28;20211;-80
2023/11/25 06:42:22;;;;;;;18.23;13.07;;;;;;;;;;5045560;28;20267;-80
2023/11/25 06:44:50;;;;;;;18.93;14.37;;;;;;;;;;5052458;28;20213;-80
2023/11/25 06:47:17;;;;;;;13.30;11.17;;;;;;;;;;5039555;28;20210;-80
2023/11/25 06:49:46;;;;;;;12.30;9.97;;;;;;;;;;5039122;28;20197;-80
2023/11/25 06:52:13;;;;;;;18.27;15.63;;;;;;;;;;5042060;28;20258;-79
2023/11/25 06:54:40;;;;;;;18.10;15.67;;;;;;;;;;5046191;28;20241;-81
2023/11/25 06:57:07;;;;;;;30.47;26.67;;;;;;;;;;5042834;28;20604;-80
2023/11/25 06:59:35;;;;;;;31.17;27.97;;;;;;;;;;5038901;28;20216;-80
2023/11/25 07:02:03;;;;;;;24.40;20.77;;;;;;;;;;5052223;28;20719;-80
2023/11/25 07:04:30;;;;;;;24.03;20.67;;;;;;;;;;5038575;28;20703;-80
2023/11/25 07:06:57;;;;;;;12.17;10.30;;;;;;;;;;5041119;28;20202;-80
2023/11/25 07:09:24;;;;;;;12.27;10.50;;;;;;;;;;5046671;28;20612;-80
2023/11/25 07:11:51;;;;;;;9.87;8.87;;;;;;;;;;5051996;28;20209;-80
2023/11/25 07:14:18;;;;;;;21.63;19.43;;;;;;;;;;5051765;28;20701;-80
2023/11/25 07:16:48;;;;;;;10.97;9.37;;;;;;;;;;5052066;28;20228;-81
2023/11/25 07:19:15;;;;;;;18.50;13.93;;;;;;;;;;5038879;28;20198;-80
2023/11/25 07:21:42;;;;;;;10.67;9.57;;;;;;;;;;5051840;28;20201;-81
2023/11/25 07:24:11;;;;;;;9.43;8.50;;;;;;;;;;5051467;28;20209;-79
2023/11/25 07:26:41;;;;;;;8.37;7.60;;;;;;;;;;5052271;28;20252;-80
2023/11/25 07:29:10;;;;;;;8.40;7.57;;;;;;;;;;5038239;28;20201;-81
2023/11/25 07:31:37;;;;;;;9.50;8.50;;;;;;;;;;5041373;28;20217;-81
2023/11/25 07:34:05;;;;;;;12.63;11.43;;;;;;;;;;5047160;28;20743;-80
2023/11/25 07:36:32;;;;;;;36.37;31.47;;;;;;;;;;5042442;28;20653;-80
2023/11/25 07:38:59;;;;;;;9.87;8.90;;;;;;;;;;5034965;28;20381;-80
2023/11/25 07:41:26;;;;;;;7.43;6.73;;;;;;;;;;5051105;28;20205;-80
2023/11/25 07:43:53;;;;;;;7.50;6.40;;;;;;;;;;5051782;28;20205;-80
2023/11/25 07:46:21;;;;;;;7.30;5.87;;;;;;;;;;5041153;28;20210;-80
2023/11/25 07:48:49;;;;;;;8.87;6.10;;;;;;;;;;5048688;28;20237;-80
2023/11/25 07:51:18;;;;;;;8.77;7.97;;;;;;;;;;5051339;28;20593;-81
2023/11/25 07:53:45;;;;;;;8.13;6.27;;;;;;;;;;5050423;28;20226;-80
2023/11/25 07:56:11;;;;;;;29.30;26.30;;;;;;;;;;5039474;28;20639;-81
2023/11/25 07:58:38;;;;;;;17.83;16.20;;;;;;;;;;5031522;28;20210;-80
2023/11/25 08:01:06;;;;;;;7.37;6.67;;;;;;;;;;5042915;28;20237;-81
2023/11/25 08:03:33;;;;;;;9.60;8.70;;;;;;;;;;5050997;28;20605;-80
2023/11/25 08:06:00;;;;;;;5.30;4.07;;;;;;;;;;5039068;28;20668;-81
2023/11/25 08:08:28;;;;;;;6.27;3.33;;;;;;;;;;5044742;28;20218;-81
2023/11/25 08:10:57;;;;;;;3.27;2.97;;;;;;;;;;5044491;28;20576;-81
2023/11/25 08:13:25;;;;;;;9.47;6.27;;;;;;;;;;5018091;28;20230;-81
2023/11/25 08:15:52;;;;;;;3.00;2.67;;;;;;;;;;5044294;28;20283;-80
2023/11/25 08:18:19;;;;;;;2.27;2.10;;;;;;;;;;5039501;28;20642;-81
2023/11/25 08:20:47;;;;;;;1.87;1.73;;;;;;;;;;5050445;28;20292;-81
2023/11/25 08:23:15;;;;;;;1.80;1.70;;;;;;;;;;5028157;28;20262;-81
2023/11/25 08:25:43;;;;;;;1.90;1.70;;;;;;;;;;5035002;28;20237;-82
2023/11/25 08:28:10;;;;;;;3.43;1.50;;;;;;;;;;5039061;28;20210;-81
2023/11/25 08:30:37;;;;;;;2.60;2.00;;;;;;;;;;5031304;28;20225;-82
2023/11/25 08:33:04;;;;;;;2.23;2.03;;;;;;;;;;5035293;28;20237;-82
2023/11/25 08:35:31;;;;;;;1.40;1.30;;;;;;;;;;5045072;28;20205;-81
2023/11/25 08:37:58;;;;;;;1.50;1.40;;;;;;;;;;5023379;28;20231;-83
2023/11/25 08:40:26;;;;;;;1.47;1.37;;;;;;;;;;5038523;28;20608;-78
2023/11/25 08:42:56;;;;;;;1.00;1.00;;;;;;;;;;5039339;28;20207;-82
2023/11/25 08:45:24;;;;;;;2.03;1.60;;;;;;;;;;5034592;28;20281;-84
2023/11/25 08:47:51;;;;;;;1.33;1.23;;;;;;;;;;5050627;28;20209;-80
2023/11/25 08:50:18;;;;;;;1.00;1.00;;;;;;;;;;5050856;28;20202;-81
2023/11/25 08:52:48;;;;;;;1.47;0.60;;;;;;;;;;5052638;28;20711;-85
2023/11/25 08:55:17;;;;;;;1.67;1.57;;;;;;;;;;5054760;28;20206;-80
2023/11/25 08:57:44;;;;;;;0.90;0.90;;;;;;;;;;5038270;28;20217;-83
2023/11/25 09:00:15;;;;;;;0.90;0.90;;;;;;;;;;5035267;28;20594;-85
2023/11/25 09:02:43;;;;;;;43.23;20.07;;;;;;;;;;5047723;28;20682;-88
2023/11/25 09:05:10;;;;;;;93.60;46.07;;;;;;;;;;5046064;28;20209;-83
2023/11/25 09:07:37;;;;;;;9.93;8.23;;;;;;;;;;5036121;28;20198;-87
2023/11/25 09:10:07;;;;;;;2.17;1.90;;;;;;;;;;5034689;28;20207;-86
2023/11/25 09:12:33;;;;;;;4.20;3.43;;;;;;;;;;5034611;28;20233;-83
2023/11/25 09:15:03;;;;;;;4.93;3.23;;;;;;;;;;5034610;28;20214;-85
2023/11/25 09:17:32;;;;;;;0.50;0.50;;;;;;;;;;5015091;28;20247;-82
2023/11/25 09:19:59;;;;;;;4.57;0.97;;;;;;;;;;5043205;28;20744;-83
2023/11/25 09:22:26;;;;;;;0.97;0.93;;;;;;;;;;5054115;28;20259;-83
2023/11/25 09:24:53;;;;;;;0.67;0.67;;;;;;;;;;5052885;28;20198;-85
2023/11/25 09:27:19;;;;;;;1.30;1.20;;;;;;;;;;5042171;28;20206;-84
2023/11/25 09:29:46;;;;;;;0.70;0.70;;;;;;;;;;5041085;28;20213;-84
2023/11/25 09:32:14;;;;;;;6.03;3.70;;;;;;;;;;5053940;28;20206;-90
2023/11/25 09:34:42;;;;;;;1.87;1.57;;;;;;;;;;5041889;28;20727;-85
2023/11/25 09:37:09;;;;;;;2.13;1.13;;;;;;;;;;5041204;28;20238;-84
2023/11/25 09:39:36;;;;;;;5.23;4.30;;;;;;;;;;5054488;28;20214;-83
2023/11/25 09:42:03;;;;;;;3.53;2.20;;;;;;;;;;5041117;28;20218;-84
2023/11/25 09:44:30;;;;;;;4.23;1.70;;;;;;;;;;5045301;28;20613;-84
2023/11/25 09:46:57;;;;;;;12.37;3.00;;;;;;;;;;5047861;28;20216;-85
2023/11/25 09:49:24;;;;;;;2.07;1.97;;;;;;;;;;5043359;28;20217;-86
2023/11/25 09:51:52;;;;;;;2.10;1.53;;;;;;;;;;5052446;28;20206;-86
2023/11/25 09:54:22;;;;;;;4.93;3.50;;;;;;;;;;5054263;28;20237;-86
2023/11/25 09:56:50;;;;;;;2.30;2.10;;;;;;;;;;5049469;28;20214;-84
2023/11/25 09:59:18;;;;;;;3.90;2.83;;;;;;;;;;5033073;28;20562;-84
2023/11/25 10:01:46;;;;;;;6.30;4.40;;;;;;;;;;5051067;28;20209;-89
2023/11/25 10:04:14;;;;;;;6.03;3.60;;;;;;;;;;5042309;28;20301;-85
2023/11/25 10:06:45;;;;;;;1.87;1.77;;;;;;;;;;5047417;28;20234;-84
2023/11/25 10:09:15;;;;;;;3.77;2.17;;;;;;;;;;5046076;28;20202;-84
2023/11/25 10:11:42;;;;;;;1.97;1.80;;;;;;;;;;5035180;28;20291;-84
2023/11/25 10:14:14;;;;;;;2.13;1.70;;;;;;;;;;5046544;28;20225;-84
2023/11/25 10:16:45;;;;;;;1.30;1.20;;;;;;;;;;5020646;28;20258;-85
2023/11/25 10:19:20;;;;;;;4.23;3.73;;;;;;;;;;5043113;28;20206;-83
2023/11/25 10:21:48;;;;;;;1.03;1.03;;;;;;;;;;5040773;28;20209;-86
2023/11/25 10:24:17;;;;;;;7.07;3.20;;;;;;;;;;5039631;28;20205;-84
2023/11/25 10:26:44;;;;;;;2.53;2.33;;;;;;;;;;5053614;28;20210;-84
2023/11/25 10:29:14;;;;;;;4.80;3.93;;;;;;;;;;5033090;28;20203;-84
2023/11/25 10:31:42;;;;;;;2.10;2.00;;;;;;;;;;5033209;28;20720;-84
2023/11/25 10:34:11;;;;;;;1.00;1.00;;;;;;;;;;5037331;28;20294;-84
2023/11/25 10:36:39;;;;;;;1.23;1.13;;;;;;;;;;5043592;28;20227;-86
2023/11/25 10:39:08;;;;;;;1.47;1.33;;;;;;;;;;5046138;28;20202;-85
2023/11/25 10:41:38;;;;;;;1.40;1.20;;;;;;;;;;5044317;28;20206;-85
2023/11/25 10:44:07;;;;;;;5.13;4.43;;;;;;;;;;5039874;28;20263;-85
2023/11/25 10:46:43;;;;;;;3.10;2.00;;;;;;;;;;5053004;28;20237;-85
2023/11/25 10:49:11;;;;;;;3.77;2.67;;;;;;;;;;5027811;28;20229;-86
2023/11/25 10:51:40;;;;;;;6.40;5.50;;;;;;;;;;5051802;28;20715;-85
2023/11/25 10:54:09;;;;;;;3.20;2.90;;;;;;;;;;5040693;28;20233;-86
2023/11/25 10:56:38;;;;;;;1.10;1.00;;;;;;;;;;5046821;28;20210;-86
2023/11/25 10:59:12;;;;;;;1.00;1.00;;;;;;;;;;5032775;28;20713;-86
2023/11/25 11:01:43;;;;;;;0.90;0.90;;;;;;;;;;5028611;28;20208;-86
2023/11/25 11:04:16;;;;;;;0.70;0.70;;;;;;;;;;5052827;28;20232;-83
2023/11/25 11:06:49;;;;;;;0.60;0.60;;;;;;;;;;5044050;28;20206;-84
2023/11/25 11:09:20;;;;;;;3.90;2.57;;;;;;;;;;5036391;28;20597;-86
2023/11/25 11:11:51;;;;;;;0.90;0.90;;;;;;;;;;5042605;28;20291;-86
2023/11/25 11:14:21;;;;;;;2.03;1.80;;;;;;;;;;5050274;28;20225;-86
2023/11/25 11:16:51;;;;;;;1.27;1.17;;;;;;;;;;5051863;28;20673;-85
2023/11/25 11:19:22;;;;;;;3.33;3.03;;;;;;;;;;5052085;28;20752;-85
2023/11/25 11:21:53;;;;;;;7.27;6.20;;;;;;;;;;5050136;28;20579;-85
2023/11/25 11:24:26;;;;;;;4.23;2.40;;;;;;;;;;5041599;28;21069;-85
2023/11/25 11:27:00;;;;;;;2.30;2.10;;;;;;;;;;5035534;28;20256;-87
2023/11/25 11:29:33;;;;;;;1.97;1.87;;;;;;;;;;5044613;28;20205;-86
2023/11/25 11:32:01;;;;;;;1.03;1.00;;;;;;;;;;5052127;28;20209;-86
2023/11/25 11:34:32;;;;;;;2.37;2.17;;;;;;;;;;5052498;28;20232;-86
2023/11/25 11:37:00;;;;;;;4.53;3.70;;;;;;;;;;5052622;28;20602;-86
2023/11/25 11:39:42;;;;;;;4.43;3.17;;;;;;;;;;5045821;28;20199;-82
2023/11/25 11:42:29;;;;;;;1.40;1.10;;;;;;;;;;5045031;28;20635;-82
2023/11/25 11:44:57;;;;;;;38.70;24.23;;;;;;;;;;5042724;28;20202;-80
2023/11/25 11:47:25;;;;;;;44.27;26.63;;;;;;;;;;5031812;28;20215;-78
2023/11/25 11:49:53;;;;;;;60.30;30.80;;;;;;;;;;5041189;28;20259;-81
2023/11/25 11:52:20;;;;;;;5.17;4.43;;;;;;;;;;5051496;28;20217;-85
2023/11/25 11:54:46;;;;;;;4.70;3.37;;;;;;;;;;5050659;28;20237;-87
2023/11/25 11:57:14;;;;;;;3.10;2.70;;;;;;;;;;5033777;28;20210;-84
2023/11/25 12:00:11;;;;;;;3.77;3.00;;;;;;;;;;5043015;28;20673;-83
2023/11/25 12:02:42;;;;;;;5.03;3.73;;;;;;;;;;5029351;28;20591;-84
2023/11/25 12:05:10;;;;;;;4.27;2.73;;;;;;;;;;5051051;28;20202;-84
2023/11/25 12:07:37;;;;;;;4.80;3.93;;;;;;;;;;5051392;28;20707;-86
2023/11/25 12:10:06;;;;;;;4.00;2.70;;;;;;;;;;5051442;28;20209;-83
2023/11/25 12:12:34;;;;;;;2.50;2.10;;;;;;;;;;5050790;28;20214;-84
2023/11/25 12:15:01;;;;;;;1.23;1.13;;;;;;;;;;5051324;28;20225;-84
2023/11/25 12:17:29;;;;;;;3.13;2.80;;;;;;;;;;5040728;28;20210;-83
2023/11/25 12:19:57;;;;;;;1.50;1.40;;;;;;;;;;5044347;28;20203;-81
2023/11/25 12:22:24;;;;;;;0.97;0.90;;;;;;;;;;5031727;28;20237;-83
2023/11/25 12:24:51;;;;;;;1.10;1.00;;;;;;;;;;5049326;28;20680;-83
2023/11/25 12:27:19;;;;;;;0.57;0.57;;;;;;;;;;5050924;28;20205;-85
2023/11/25 12:29:45;;;;;;;0.53;0.53;;;;;;;;;;5037472;28;20198;-82
2023/11/25 12:32:12;;;;;;;0.50;0.50;;;;;;;;;;5050430;28;20285;-82
2023/11/25 12:34:41;;;;;;;4.17;0.60;;;;;;;;;;5037956;28;20301;-82
2023/11/25 12:37:12;;;;;;;0.43;0.43;;;;;;;;;;5050153;28;20268;-82
2023/11/25 12:39:41;;;;;;;0.90;0.70;;;;;;;;;;5043899;28;20224;-84
2023/11/25 12:42:12;;;;;;;0.77;0.77;;;;;;;;;;5031325;28;20234;-82
2023/11/25 12:44:48;;;;;;;1.93;1.70;;;;;;;;;;5039860;28;20220;-82
2023/11/25 12:47:15;;;;;;;1.17;1.13;;;;;;;;;;5050801;28;20292;-82
2023/11/25 12:49:44;;;;;;;1.20;1.10;;;;;;;;;;5040102;28;20206;-84
2023/11/25 12:52:19;;;;;;;1.17;1.07;;;;;;;;;;5044039;28;20206;-84
2023/11/25 12:54:46;;;;;;;0.70;0.70;;;;;;;;;;5030773;28;20711;-83
2023/11/25 12:57:14;;;;;;;0.87;0.87;;;;;;;;;;5043870;28;20230;-83
2023/11/25 12:59:43;;;;;;;1.23;1.13;;;;;;;;;;5043475;28;20244;-82
2023/11/25 13:02:12;;;;;;;0.63;0.63;;;;;;;;;;5036925;28;20288;-84
2023/11/25 13:04:46;;;;;;;0.60;0.60;;;;;;;;;;5037661;28;20657;-84
2023/11/25 13:07:31;;;;;;;0.40;0.40;;;;;;;;;;5023743;28;20213;-84
2023/11/25 13:09:57;;;;;;;0.43;0.43;;;;;;;;;;5045669;28;20260;-83
2023/11/25 13:12:25;;;;;;;0.70;0.70;;;;;;;;;;5048413;28;20586;-86
2023/11/25 13:14:52;;;;;;;0.87;0.87;;;;;;;;;;5044972;28;20683;-83
2023/11/25 13:17:18;;;;;;;1.10;1.00;;;;;;;;;;5030685;28;20700;-83
2023/11/25 13:19:47;;;;;;;1.50;1.40;;;;;;;;;;5020115;28;20213;-83
2023/11/25 13:22:15;;;;;;;1.20;1.10;;;;;;;;;;5046766;28;20210;-82
2023/11/25 13:24:44;;;;;;;1.97;1.50;;;;;;;;;;5038375;28;20210;-83
2023/11/25 13:27:12;;;;;;;2.27;1.63;;;;;;;;;;5044046;28;20206;-82
2023/11/25 13:29:39;;;;;;;1.57;1.30;;;;;;;;;;5022208;28;20241;-84
2023/11/25 13:32:10;;;;;;;1.67;1.20;;;;;;;;;;5030356;28;20217;-84
2023/11/25 13:34:37;;;;;;;0.80;0.80;;;;;;;;;;5024778;28;20228;-82
2023/11/25 13:37:08;;;;;;;0.40;0.40;;;;;;;;;;5050400;28;20236;-85
2023/11/25 13:39:35;;;;;;;0.60;0.60;;;;;;;;;;5044562;28;20207;-83
2023/11/25 13:42:04;;;;;;;1.60;1.17;;;;;;;;;;5047835;28;20201;-82
2023/11/25 13:44:31;;;;;;;1.80;1.70;;;;;;;;;;5044208;28;20224;-83
2023/11/25 13:46:58;;;;;;;3.77;2.33;;;;;;;;;;5047586;28;20205;-83
2023/11/25 13:49:28;;;;;;;1.43;1.27;;;;;;;;;;5033887;28;20696;-83
2023/11/25 13:51:56;;;;;;;2.10;1.90;;;;;;;;;;5047362;28;20269;-85
2023/11/25 13:54:24;;;;;;;0.90;0.90;;;;;;;;;;5034234;28;20313;-84
2023/11/25 13:56:52;;;;;;;4.70;2.80;;;;;;;;;;5035761;28;20670;-89
2023/11/25 13:59:18;;;;;;;1.67;1.57;;;;;;;;;;5034346;28;20214;-84
2023/11/25 14:01:46;;;;;;;1.10;1.07;;;;;;;;;;5053152;28;20213;-84
2023/11/25 14:04:13;;;;;;;2.10;1.23;;;;;;;;;;5027859;28;20203;-85
2023/11/25 14:06:42;;;;;;;0.90;0.90;;;;;;;;;;5037087;28;20218;-88
2023/11/25 14:09:16;;;;;;;0.63;0.63;;;;;;;;;;5050919;28;20707;-86
2023/11/25 14:11:44;;;;;;;1.03;0.93;;;;;;;;;;5053562;28;20742;-84
2023/11/25 14:14:11;;;;;;;1.43;1.10;;;;;;;;;;5053935;28;20704;-87
2023/11/25 14:16:38;;;;;;;1.37;1.10;;;;;;;;;;5051282;28;20301;-84
2023/11/25 14:19:05;;;;;;;2.47;2.13;;;;;;;;;;5034136;28;20211;-86
2023/11/25 14:21:32;;;;;;;3.23;2.93;;;;;;;;;;5049854;28;20205;-86
2023/11/25 14:24:00;;;;;;;0.73;0.73;;;;;;;;;;5053635;28;20292;-85
2023/11/25 14:26:27;;;;;;;1.00;0.90;;;;;;;;;;5053807;28;20700;-84
2023/11/25 14:28:55;;;;;;;1.50;1.00;;;;;;;;;;5042940;28;20203;-89
2023/11/25 14:31:22;;;;;;;0.50;0.50;;;;;;;;;;5046333;28;20230;-84
2023/11/25 14:33:49;;;;;;;11.57;4.27;;;;;;;;;;5047518;28;20252;-86
2023/11/25 14:36:15;;;;;;;3.93;3.03;;;;;;;;;;5053621;28;20245;-88